createdAt,value
2018-06-12T00:01:10.043Z,6.57
2018-06-12T00:03:43.779Z,6.25
2018-06-12T00:06:17.435Z,6.43
2018-06-12T00:08:51.276Z,5.82
2018-06-12T00:11:25.782Z,5.97
2018-06-12T00:14:00.263Z,6.20
2018-06-12T00:16:34.707Z,5.78
2018-06-12T00:19:08.525Z,6.18
2018-06-12T00:21:42.225Z,6.07
2018-06-12T00:24:16.723Z,5.40
2018-06-12T00:26:50.497Z,5.50
2018-06-12T00:29:24.262Z,5.75
2018-06-12T00:31:57.860Z,5.10
2018-06-12T00:34:32.487Z,6.30
2018-06-12T00:37:07.016Z,4.90
2018-06-12T00:39:41.484Z,5.75
2018-06-12T00:42:15.256Z,6.62
2018-06-12T00:44:49.047Z,6.70
2018-06-12T00:47:23.488Z,5.93
2018-06-12T00:49:57.213Z,5.93
2018-06-12T00:52:31.066Z,6.30
2018-06-12T00:55:05.679Z,6.70
2018-06-12T00:57:40.325Z,6.55
2018-06-12T01:00:14.065Z,9.38
2018-06-12T01:02:47.745Z,7.50
2018-06-12T01:05:21.325Z,7.45
2018-06-12T01:07:54.940Z,6.25
2018-06-12T01:10:28.649Z,6.93
2018-06-12T01:13:02.359Z,8.05
2018-06-12T01:15:36.144Z,7.22
2018-06-12T01:18:09.884Z,7.85
2018-06-12T01:20:44.344Z,7.62
2018-06-12T01:23:19.000Z,8.50
2018-06-12T01:25:53.509Z,8.40
2018-06-12T01:28:28.060Z,9.07
2018-06-12T01:31:01.861Z,7.90
2018-06-12T01:33:35.633Z,8.40
2018-06-12T01:36:09.446Z,10.57
2018-06-12T01:38:44.084Z,8.63
2018-06-12T01:41:18.601Z,9.27
2018-06-12T01:43:52.367Z,8.65
2018-06-12T01:46:26.248Z,8.80
2018-06-12T01:48:59.936Z,10.52
2018-06-12T01:51:33.606Z,10.80
2018-06-12T01:54:08.034Z,9.20
2018-06-12T01:56:41.893Z,10.85
2018-06-12T01:59:15.640Z,10.80
2018-06-12T02:01:50.279Z,10.00
2018-06-12T02:04:24.061Z,11.70
2018-06-12T02:06:57.714Z,9.00
2018-06-12T02:09:31.546Z,10.23
2018-06-12T02:12:06.128Z,10.75
2018-06-12T02:14:39.985Z,8.60
2018-06-12T02:17:13.687Z,9.30
2018-06-12T02:19:47.441Z,8.65
2018-06-12T02:22:21.076Z,10.20
2018-06-12T02:24:54.853Z,11.85
2018-06-12T02:27:29.376Z,11.98
2018-06-12T02:30:03.090Z,11.20
2018-06-12T02:32:36.770Z,12.00
2018-06-12T02:35:10.597Z,10.98
2018-06-12T02:37:44.194Z,11.73
2018-06-12T02:40:18.036Z,13.05
2018-06-12T02:42:51.852Z,13.75
2018-06-12T02:45:25.899Z,13.50
2018-06-12T02:47:59.630Z,13.65
2018-06-12T02:50:33.229Z,13.88
2018-06-12T02:53:07.053Z,14.32
2018-06-12T02:55:41.723Z,13.57
2018-06-12T02:58:16.205Z,18.90
2018-06-12T03:00:50.817Z,14.07
2018-06-12T03:03:24.539Z,14.00
2018-06-12T03:05:58.190Z,15.00
2018-06-12T03:08:32.003Z,14.87
2018-06-12T03:11:05.811Z,17.00
2018-06-12T03:13:39.467Z,14.45
2018-06-12T03:16:13.129Z,15.52
2018-06-12T03:18:46.863Z,20.62
2018-06-12T03:21:20.738Z,15.80
2018-06-12T03:23:54.447Z,16.05
2018-06-12T03:26:28.320Z,16.58
2018-06-12T03:29:01.954Z,16.42
2018-06-12T03:31:35.868Z,17.00
2018-06-12T03:34:09.460Z,16.48
2018-06-12T03:36:43.303Z,16.77
2018-06-12T03:39:16.962Z,16.70
2018-06-12T03:41:50.816Z,17.58
2018-06-12T03:44:24.592Z,17.33
2018-06-12T03:46:59.208Z,18.95
2018-06-12T03:49:33.068Z,17.80
2018-06-12T03:52:07.698Z,17.33
2018-06-12T03:54:41.598Z,15.95
2018-06-12T03:57:15.445Z,13.40
2018-06-12T03:59:49.232Z,13.93
2018-06-12T04:02:23.808Z,14.93
2018-06-12T04:04:57.644Z,14.15
2018-06-12T04:07:32.223Z,16.65
2018-06-12T04:10:05.972Z,14.50
2018-06-12T04:12:39.748Z,16.42
2018-06-12T04:15:13.524Z,16.08
2018-06-12T04:17:47.317Z,15.77
2018-06-12T04:20:21.883Z,15.82
2018-06-12T04:22:56.472Z,14.43
2018-06-12T04:25:30.231Z,14.68
2018-06-12T04:28:04.051Z,17.23
2018-06-12T04:30:38.660Z,14.70
2018-06-12T04:33:12.436Z,17.35
2018-06-12T04:35:46.277Z,15.35
2018-06-12T04:38:20.862Z,15.32
2018-06-12T04:40:54.452Z,14.98
2018-06-12T04:43:28.286Z,14.77
2018-06-12T04:46:02.763Z,15.60
2018-06-12T04:48:36.612Z,14.70
2018-06-12T04:51:10.679Z,16.12
2018-06-12T04:53:44.660Z,16.17
2018-06-12T04:56:18.401Z,15.43
2018-06-12T04:58:52.234Z,15.30
2018-06-12T05:01:25.940Z,15.52
2018-06-12T05:03:59.934Z,14.48
2018-06-12T05:06:33.637Z,16.75
2018-06-12T05:09:07.357Z,16.92
2018-06-12T05:11:41.072Z,17.92
2018-06-12T05:18:37.392Z,20.92
2018-06-12T05:21:11.824Z,22.27
2018-06-12T05:23:46.386Z,19.08
2018-06-12T05:26:20.961Z,19.45
2018-06-12T05:28:55.322Z,22.77
2018-06-12T05:31:29.920Z,21.58
2018-06-12T05:34:04.501Z,18.67
2018-06-12T05:36:39.074Z,19.27
2018-06-12T05:39:13.011Z,22.98
2018-06-12T05:41:46.807Z,19.80
2018-06-12T05:44:20.466Z,20.55
2018-06-12T05:46:54.257Z,22.90
2018-06-12T05:49:28.782Z,22.40
2018-06-12T05:52:03.358Z,20.48
2018-06-12T05:54:37.196Z,20.40
2018-06-12T05:57:10.844Z,19.48
2018-06-12T05:59:44.588Z,20.30
2018-06-12T06:02:19.143Z,20.00
2018-06-12T06:04:52.792Z,20.10
2018-06-12T06:07:26.583Z,19.30
2018-06-12T06:10:00.324Z,19.90
2018-06-12T06:12:34.997Z,21.48
2018-06-12T06:15:08.720Z,19.58
2018-06-12T06:17:42.365Z,20.10
2018-06-12T06:20:16.059Z,18.02
2018-06-12T06:22:49.707Z,17.35
2018-06-12T06:25:23.492Z,19.50
2018-06-12T06:27:58.066Z,18.08
2018-06-12T06:30:31.896Z,18.20
2018-06-12T06:33:06.359Z,19.37
2018-06-12T06:35:39.994Z,20.33
2018-06-12T06:38:13.805Z,21.92
2018-06-12T06:40:47.489Z,18.55
2018-06-12T06:43:22.084Z,18.85
2018-06-12T06:45:55.966Z,20.40
2018-06-12T06:48:29.775Z,21.62
2018-06-12T06:51:03.629Z,19.25
2018-06-12T06:53:37.560Z,19.42
2018-06-12T06:56:12.057Z,22.27
2018-06-12T06:58:45.757Z,20.55
2018-06-12T07:01:20.292Z,20.73
2018-06-12T07:03:54.102Z,20.37
2018-06-12T07:06:28.548Z,16.87
2018-06-12T07:09:03.225Z,17.85
2018-06-12T07:11:36.907Z,23.30
2018-06-12T07:14:10.545Z,15.40
2018-06-12T07:16:44.428Z,20.70
2018-06-12T07:19:18.422Z,27.15
2018-06-12T07:21:52.365Z,15.55
2018-06-12T07:24:26.019Z,20.00
2018-06-12T07:26:59.855Z,23.55
2018-06-12T07:29:33.651Z,40.28
2018-06-12T07:32:07.410Z,20.67
2018-06-12T07:34:41.100Z,18.25
2018-06-12T07:37:14.991Z,16.80
2018-06-12T07:39:48.917Z,17.20
2018-06-12T07:42:22.645Z,15.93
2018-06-12T07:44:56.530Z,17.70
2018-06-12T07:47:30.193Z,13.30
2018-06-12T07:50:03.992Z,15.93
2018-06-12T07:52:37.833Z,17.43
2018-06-12T07:55:11.469Z,16.37
2018-06-12T07:57:45.269Z,15.03
2018-06-12T08:00:19.852Z,16.13
2018-06-12T08:02:53.594Z,13.90
2018-06-12T08:05:27.236Z,13.13
2018-06-12T08:08:00.996Z,13.95
2018-06-12T08:10:35.641Z,16.35
2018-06-12T08:13:09.477Z,14.30
2018-06-12T08:15:43.788Z,12.73
2018-06-12T08:18:19.314Z,13.30
2018-06-12T08:20:53.360Z,12.90
2018-06-12T08:23:27.946Z,13.77
2018-06-12T08:26:01.657Z,13.75
2018-06-12T08:28:36.135Z,12.60
2018-06-12T08:31:09.828Z,12.80
2018-06-12T08:33:43.572Z,13.35
2018-06-12T08:36:17.285Z,12.73
2018-06-12T08:38:52.067Z,12.13
2018-06-12T08:41:26.312Z,19.17
2018-06-12T08:44:00.357Z,13.25
2018-06-12T08:46:34.022Z,10.98
2018-06-12T08:49:08.765Z,13.60
2018-06-12T08:51:42.786Z,12.05
2018-06-12T08:54:17.276Z,12.63
2018-06-12T08:56:50.984Z,13.18
2018-06-12T08:59:24.747Z,11.85
2018-06-12T09:01:59.246Z,11.50
2018-06-12T09:04:33.886Z,11.80
2018-06-12T09:07:07.490Z,13.02
2018-06-12T09:09:41.215Z,12.40
2018-06-12T09:12:15.030Z,12.32
2018-06-12T09:14:49.680Z,10.63
2018-06-12T09:17:23.507Z,11.25
2018-06-12T09:19:57.321Z,18.02
2018-06-12T09:22:31.008Z,15.45
2018-06-12T09:25:05.656Z,14.63
2018-06-12T09:27:39.388Z,12.77
2018-06-12T09:30:13.848Z,11.20
2018-06-12T09:32:47.542Z,12.33
2018-06-12T09:35:21.435Z,11.40
2018-06-12T09:37:55.163Z,9.53
2018-06-12T09:40:28.900Z,10.10
2018-06-12T09:43:03.509Z,10.07
2018-06-12T09:45:37.343Z,9.30
2018-06-12T09:48:10.974Z,9.53
2018-06-12T09:50:44.658Z,9.37
2018-06-12T09:53:18.496Z,9.90
2018-06-12T09:55:53.123Z,11.27
2018-06-12T09:58:26.805Z,9.77
2018-06-12T10:01:00.669Z,18.60
2018-06-12T10:03:35.283Z,11.97
2018-06-12T10:06:08.972Z,10.27
2018-06-12T10:08:42.616Z,9.47
2018-06-12T10:11:16.369Z,13.00
2018-06-12T10:13:49.966Z,8.97
2018-06-12T10:16:23.609Z,9.07
2018-06-12T10:18:57.281Z,8.10
2018-06-12T10:21:31.117Z,7.57
2018-06-12T10:24:05.083Z,8.20
2018-06-12T10:26:39.553Z,7.30
2018-06-12T10:29:13.312Z,9.63
2018-06-12T10:31:47.139Z,9.77
2018-06-12T10:34:21.673Z,7.30
2018-06-12T10:36:55.321Z,7.23
2018-06-12T10:39:29.051Z,7.70
2018-06-12T10:42:04.724Z,7.77
2018-06-12T10:44:38.601Z,8.13
2018-06-12T10:47:12.204Z,8.70
2018-06-12T10:49:50.541Z,8.97
2018-06-12T10:52:24.882Z,7.43
2018-06-12T10:54:59.256Z,7.50
2018-06-12T10:57:32.880Z,8.33
2018-06-12T11:00:06.753Z,11.67
2018-06-12T11:02:40.386Z,7.13
2018-06-12T11:05:14.115Z,9.10
2018-06-12T11:07:47.955Z,8.83
2018-06-12T11:10:23.670Z,9.67
2018-06-12T11:13:07.086Z,16.63
2018-06-12T11:15:41.328Z,8.30
2018-06-12T11:18:15.021Z,8.40
2018-06-12T11:20:49.525Z,8.00
2018-06-12T11:23:24.062Z,8.00
2018-06-12T11:25:58.655Z,8.60
2018-06-12T11:28:32.373Z,6.90
2018-06-12T11:31:06.088Z,7.70
2018-06-12T11:33:40.014Z,9.80
2018-06-12T11:36:13.723Z,14.67
2018-06-12T11:38:47.654Z,9.53
2018-06-12T11:41:22.104Z,15.80
2018-06-12T11:43:55.836Z,11.77
2018-06-12T11:46:29.560Z,13.85
2018-06-12T11:49:04.148Z,7.95
2018-06-12T11:51:37.921Z,8.57
2018-06-12T11:54:12.443Z,12.63
2018-06-12T11:56:46.419Z,9.38
2018-06-12T11:59:20.193Z,13.73
2018-06-12T12:01:53.939Z,9.45
2018-06-12T12:04:27.621Z,14.23
2018-06-12T12:07:01.313Z,13.75
2018-06-12T12:09:35.180Z,12.35
2018-06-12T12:12:09.004Z,12.40
2018-06-12T12:14:42.797Z,13.75
2018-06-12T12:17:16.481Z,12.63
2018-06-12T12:19:50.301Z,15.30
2018-06-12T12:22:23.968Z,16.35
2018-06-12T12:24:58.398Z,20.15
2018-06-12T12:27:32.060Z,20.30
2018-06-12T12:30:05.930Z,21.20
2018-06-12T12:32:39.697Z,16.60
2018-06-12T12:35:14.114Z,22.48
2018-06-12T12:37:47.933Z,24.05
2018-06-12T12:40:22.409Z,20.75
2018-06-12T12:42:56.150Z,25.17
2018-06-12T12:45:30.997Z,24.25
2018-06-12T12:48:04.609Z,20.17
2018-06-12T12:50:38.454Z,24.45
2018-06-12T12:53:13.188Z,19.33
2018-06-12T12:55:47.024Z,19.62
2018-06-12T12:58:21.088Z,17.08
2018-06-12T13:00:54.778Z,16.95
2018-06-12T13:03:28.641Z,19.42
2018-06-12T13:06:02.558Z,21.75
2018-06-12T13:08:37.027Z,22.90
2018-06-12T13:11:11.609Z,17.20
2018-06-12T13:13:45.299Z,16.90
2018-06-12T13:16:19.143Z,20.95
2018-06-12T13:18:53.776Z,19.00
2018-06-12T13:21:28.157Z,21.60
2018-06-12T13:24:01.985Z,17.33
2018-06-12T13:26:36.504Z,21.33
2018-06-12T13:29:10.232Z,17.73
2018-06-12T13:31:44.191Z,16.55
2018-06-12T13:34:17.834Z,17.60
2018-06-12T13:36:51.750Z,18.62
2018-06-12T13:39:26.330Z,18.25
2018-06-12T13:42:00.864Z,20.92
2018-06-12T13:44:34.492Z,17.60
2018-06-12T13:47:08.307Z,20.00
2018-06-12T13:49:42.049Z,19.00
2018-06-12T13:52:16.575Z,18.80
2018-06-12T13:54:50.429Z,15.75
2018-06-12T13:57:24.190Z,13.10
2018-06-12T13:59:58.073Z,14.87
2018-06-12T14:02:31.733Z,16.30
2018-06-12T14:05:05.348Z,16.52
2018-06-12T14:07:39.108Z,16.40
2018-06-12T14:10:12.883Z,21.23
2018-06-12T14:12:52.104Z,16.50
2018-06-12T14:15:25.886Z,18.52
2018-06-12T14:18:00.372Z,21.77
2018-06-12T14:20:34.242Z,20.30
2018-06-12T14:23:07.914Z,18.23
2018-06-12T14:25:42.400Z,21.05
2018-06-12T14:28:16.174Z,20.42
2018-06-12T14:30:50.101Z,18.23
2018-06-12T14:33:24.530Z,21.60
2018-06-12T14:35:58.194Z,19.35
2018-06-12T14:38:31.888Z,22.13
2018-06-12T14:41:05.656Z,20.85
2018-06-12T14:43:39.420Z,21.27
2018-06-12T14:46:13.995Z,24.30
2018-06-12T14:48:48.648Z,18.73
2018-06-12T14:51:22.387Z,20.35
2018-06-12T14:53:56.284Z,18.65
2018-06-12T14:56:29.984Z,20.62
2018-06-12T14:59:04.692Z,22.02
2018-06-12T15:01:38.593Z,18.70
2018-06-12T15:04:12.325Z,20.15
2018-06-12T15:06:46.129Z,19.35
2018-06-12T15:09:19.898Z,21.85
2018-06-12T15:11:53.641Z,18.35
2018-06-12T15:14:27.394Z,18.62
2018-06-12T15:17:01.357Z,17.35
2018-06-12T15:19:35.880Z,17.65
2018-06-12T15:22:09.715Z,18.55
2018-06-12T15:24:43.374Z,15.52
2018-06-12T15:27:18.059Z,14.75
2018-06-12T15:29:51.778Z,17.65
2018-06-12T15:32:25.674Z,22.75
2018-06-12T15:35:00.261Z,16.90
2018-06-12T15:37:33.988Z,16.55
2018-06-12T15:40:12.908Z,15.93
2018-06-12T15:42:47.071Z,17.98
2018-06-12T15:45:21.620Z,16.20
2018-06-12T15:47:55.316Z,15.43
2018-06-12T15:50:31.004Z,16.05
2018-06-12T15:53:05.062Z,17.67
2018-06-12T15:55:38.958Z,18.45
2018-06-12T15:58:13.563Z,17.70
2018-06-12T16:00:47.371Z,19.40
2018-06-12T16:03:21.867Z,20.30
2018-06-12T16:05:55.542Z,22.33
2018-06-12T16:08:29.204Z,19.75
2018-06-12T16:11:02.967Z,17.40
2018-06-12T16:13:37.617Z,18.42
2018-06-12T16:16:11.509Z,17.27
2018-06-12T16:18:45.364Z,16.50
2018-06-12T16:21:19.921Z,16.55
2018-06-12T16:23:53.696Z,15.98
2018-06-12T16:26:27.296Z,17.58
2018-06-12T16:29:00.944Z,17.10
2018-06-12T16:31:34.719Z,16.42
2018-06-12T16:34:09.341Z,16.25
2018-06-12T16:36:43.250Z,14.25
2018-06-12T16:39:17.654Z,17.95
2018-06-12T16:41:51.465Z,18.10
2018-06-12T16:44:26.084Z,17.83
2018-06-12T16:46:59.841Z,17.33
2018-06-12T16:49:33.503Z,17.52
2018-06-12T16:52:07.176Z,16.48
2018-06-12T16:54:40.836Z,18.85
2018-06-12T16:57:14.655Z,16.08
2018-06-12T16:59:49.237Z,16.77
2018-06-12T17:02:23.837Z,17.15
2018-06-12T17:04:58.473Z,19.17
2018-06-12T17:07:32.118Z,32.72
2018-06-12T17:10:06.036Z,19.50
2018-06-12T17:12:39.813Z,16.70
2018-06-12T17:15:13.521Z,17.77
2018-06-12T17:17:47.376Z,16.20
2018-06-12T17:20:21.189Z,16.55
2018-06-12T17:22:54.893Z,14.82
2018-06-12T17:25:28.608Z,15.82
2018-06-12T17:28:02.447Z,13.68
2018-06-12T17:30:36.236Z,16.20
2018-06-12T17:33:10.016Z,16.87
2018-06-12T17:35:44.527Z,14.13
2018-06-12T17:38:19.073Z,16.12
2018-06-12T17:40:52.993Z,16.30
2018-06-12T17:43:26.787Z,19.55
2018-06-12T17:46:00.590Z,15.63
2018-06-12T17:48:35.206Z,14.85
2018-06-12T17:51:09.004Z,16.30
2018-06-12T17:53:42.833Z,17.08
2018-06-12T17:56:17.356Z,16.08
2018-06-12T17:58:51.192Z,10.60
2018-06-12T18:01:25.760Z,12.32
2018-06-12T18:03:59.403Z,10.00
2018-06-12T18:06:33.242Z,8.02
2018-06-12T18:09:07.721Z,7.85
2018-06-12T18:11:41.445Z,7.72
2018-06-12T18:14:16.144Z,7.80
2018-06-12T18:16:49.732Z,6.30
2018-06-12T18:19:23.447Z,5.78
2018-06-12T18:21:58.777Z,6.45
2018-06-12T18:24:33.449Z,6.37
2018-06-12T18:27:07.284Z,6.57
2018-06-12T18:29:42.704Z,6.55
2018-06-12T18:32:16.488Z,5.80
2018-06-12T18:34:50.196Z,5.90
2018-06-12T18:37:24.049Z,7.37
2018-06-12T18:39:57.737Z,6.22
2018-06-12T18:42:31.509Z,7.80
2018-06-12T18:45:05.265Z,9.32
2018-06-12T18:47:39.287Z,14.82
2018-06-12T18:50:13.598Z,18.02
2018-06-12T18:52:48.164Z,22.37
2018-06-12T18:55:23.318Z,24.77
2018-06-12T18:57:57.395Z,28.42
2018-06-12T19:00:31.231Z,16.87
2018-06-12T19:03:04.975Z,12.57
2018-06-12T19:05:38.643Z,17.05
2018-06-12T19:08:12.499Z,19.33
2018-06-12T19:10:47.157Z,24.85
2018-06-12T19:13:20.985Z,25.85
2018-06-12T19:15:55.385Z,29.80
2018-06-12T19:18:29.064Z,28.83
2018-06-12T19:21:02.942Z,27.23
2018-06-12T19:23:36.732Z,29.80
2018-06-12T19:26:10.592Z,32.97
2018-06-12T19:28:45.129Z,36.53
2018-06-12T19:31:18.825Z,28.08
2018-06-12T19:33:52.667Z,28.30
2018-06-12T19:36:26.500Z,31.05
2018-06-12T19:39:01.042Z,31.58
2018-06-12T19:41:34.753Z,30.25
2018-06-12T19:44:08.589Z,27.98
2018-06-12T19:46:42.407Z,29.17
2018-06-12T19:49:16.083Z,29.02
2018-06-12T19:51:50.696Z,25.95
2018-06-12T19:54:25.244Z,25.52
2018-06-12T19:56:59.029Z,27.02
2018-06-12T19:59:32.825Z,26.17
2018-06-12T20:02:07.383Z,27.45
2018-06-12T20:04:41.144Z,24.65
2018-06-12T20:07:14.977Z,23.92
2018-06-12T20:09:48.821Z,28.17
2018-06-12T20:12:22.660Z,25.80
2018-06-12T20:14:56.412Z,23.52
2018-06-12T20:17:30.220Z,21.23
2018-06-12T20:20:04.044Z,22.30
2018-06-12T20:22:37.895Z,25.35
2018-06-12T20:25:12.523Z,23.15
2018-06-12T20:27:47.049Z,26.95
2018-06-12T20:30:21.680Z,22.55
2018-06-12T20:32:55.455Z,23.80
2018-06-12T20:35:29.343Z,22.95
2018-06-12T20:38:03.925Z,21.83
2018-06-12T20:40:37.699Z,21.30
2018-06-12T20:43:11.557Z,18.62
2018-06-12T20:45:45.348Z,19.77
2018-06-12T20:48:19.185Z,16.80
2018-06-12T20:50:53.084Z,17.10
2018-06-12T20:53:26.900Z,16.90
2018-06-12T20:56:00.575Z,16.35
2018-06-12T20:58:34.352Z,19.17
2018-06-12T21:01:09.040Z,20.42
2018-06-12T21:03:42.637Z,21.60
2018-06-12T21:06:16.551Z,21.70
2018-06-12T21:08:51.048Z,20.42
2018-06-12T21:11:24.749Z,21.55
2018-06-12T21:13:58.658Z,20.70
2018-06-12T21:16:32.528Z,21.35
2018-06-12T21:19:07.108Z,23.02
2018-06-12T21:21:40.909Z,22.37
2018-06-12T21:24:14.834Z,20.98
2018-06-12T21:26:48.793Z,21.37
2018-06-12T21:29:22.587Z,20.20
2018-06-12T21:31:56.415Z,19.77
2018-06-12T21:34:30.250Z,20.80
2018-06-12T21:37:04.112Z,21.90
2018-06-12T21:39:37.803Z,20.67
2018-06-12T21:42:11.557Z,20.62
2018-06-12T21:44:45.972Z,21.12
2018-06-12T21:47:19.712Z,22.40
2018-06-12T21:49:53.516Z,22.33
2018-06-12T21:52:27.434Z,17.15
2018-06-12T21:55:02.006Z,20.50
2018-06-12T21:57:35.677Z,19.37
2018-06-12T22:00:09.532Z,18.62
2018-06-12T22:02:43.260Z,16.40
2018-06-12T22:05:17.048Z,15.20
2018-06-12T22:07:50.829Z,13.80
2018-06-12T22:10:25.268Z,14.40
2018-06-12T22:12:58.972Z,15.15
2018-06-12T22:15:33.537Z,15.32
2018-06-12T22:18:08.143Z,16.87
2018-06-12T22:20:41.948Z,18.00
2018-06-12T22:23:15.857Z,15.73
2018-06-12T22:25:50.524Z,17.85
2018-06-12T22:28:24.272Z,16.80
2018-06-12T22:30:58.067Z,17.85
2018-06-12T22:33:32.599Z,17.92
2018-06-12T22:36:06.458Z,16.55
2018-06-12T22:38:40.239Z,15.00
2018-06-12T22:41:14.191Z,18.23
2018-06-12T22:43:47.916Z,17.62
2018-06-12T22:46:21.992Z,15.02
2018-06-12T22:48:55.791Z,16.08
2018-06-12T22:51:29.642Z,14.73
2018-06-12T22:54:03.327Z,15.27
2018-06-12T22:56:37.959Z,16.02
2018-06-12T22:59:12.479Z,14.65
2018-06-12T23:01:46.198Z,14.57
2018-06-12T23:04:20.740Z,17.00
2018-06-12T23:06:54.400Z,15.10
2018-06-12T23:09:29.040Z,15.02
2018-06-12T23:12:02.652Z,15.27
2018-06-12T23:14:36.474Z,15.70
2018-06-12T23:17:10.253Z,14.57
2018-06-12T23:19:44.114Z,15.30
2018-06-12T23:22:18.028Z,17.35
2018-06-12T23:24:51.872Z,15.38
2018-06-12T23:27:26.511Z,14.57
2018-06-12T23:30:00.332Z,14.90
2018-06-12T23:32:34.033Z,14.93
2018-06-12T23:35:07.864Z,16.33
2018-06-12T23:37:41.660Z,15.63
2018-06-12T23:40:15.558Z,15.45
2018-06-12T23:42:50.249Z,14.65
2018-06-12T23:45:24.104Z,14.05
2018-06-12T23:47:57.998Z,17.98
2018-06-12T23:50:32.717Z,13.65
2018-06-12T23:53:06.344Z,13.38
2018-06-12T23:55:40.133Z,12.93
2018-06-12T23:58:13.836Z,14.15
